Valle Di Nervion — IBPC — position and weather

sailwx.info

Track history (hours):
 
Tides and Currents Weather Stations Pressure Air Temp Water Temp Dewpoint Dewpoint Depression Visibility Wind Speed Wind Dir Waves Ship Positions

Valle Di Nervion

Last reported at 2014-Aug-23 02:33 UTC. Time now 2014-Aug-23 03:34 UTC.
Position N 37°14' E 026°18'.

Length 176 m; draft 9.5 m.

Type: Ship (hazmat cat D). MMSI: 247109500.

Date/timePositionNaut miles runAvg speedWind from/ knotsBaromVisibWave heightAir tempDewpointWater temp
2014-Aug-23 02:33N 37°14' E 026°18'1312.6
2014-Aug-23 01:33N 37°22' E 026°06'1212.5
2014-Aug-23 00:33N 37°30' E 025°53'1412.9
2014-Aug-22 23:29N 37°43' E 025°51'1812.5
2014-Aug-22 22:04N 38°01' E 025°48'612.5
2014-Aug-22 21:33N 38°07' E 025°46'1312.7
2014-Aug-22 20:33N 38°20' E 025°44'2512.5
2014-Aug-22 18:33N 38°45' E 025°43'1312.8
2014-Aug-22 17:32N 38°58' E 025°44'4112.6
2014-Aug-22 14:14N 39°39' E 025°44'2312.5
2014-Aug-22 12:24N 39°60' E 025°57'4812.4
2014-Aug-22 08:33N 40°27' E 026°48'22 3.4
2014-Aug-22 02:14N 40°37' E 027°14'4012.6
2014-Aug-21 23:06N 40°49' E 028°03'812.4
2014-Aug-21 22:26N 40°50' E 028°14'1412.5
2014-Aug-21 21:20N 40°51' E 028°32'1012.6
2014-Aug-21 20:32N 40°53' E 028°45'1010.6
2014-Aug-21 19:33N 40°58' E 028°58'  
2014-Aug-18 12:33N 44°43' E 037°47'0 0.2
2014-Aug-18 11:32N 44°44' E 037°47'0 0.0
2014-Aug-18 10:32N 44°44' E 037°47'0 0.0
2014-Aug-18 09:29N 44°44' E 037°47'0 0.0
2014-Aug-18 08:29N 44°44' E 037°47'0 0.0
2014-Aug-18 07:32N 44°44' E 037°47'0 0.0
2014-Aug-18 06:32N 44°44' E 037°47'0 0.0
2014-Aug-18 05:32N 44°44' E 037°47'0 0.0
2014-Aug-18 04:32N 44°44' E 037°47'0 0.0
2014-Aug-18 03:32N 44°44' E 037°47'0 0.0
2014-Aug-18 02:32N 44°44' E 037°47'0 0.0
2014-Aug-18 01:32N 44°44' E 037°47'0 0.0
2014-Aug-18 00:32N 44°44' E 037°47'0 0.0
2014-Aug-17 18:31N 44°44' E 037°47'0 0.0
2014-Aug-17 17:31N 44°44' E 037°47'0 0.0
2014-Aug-17 16:31N 44°44' E 037°47'0 0.0
2014-Aug-17 15:31N 44°44' E 037°47'0 0.0
2014-Aug-17 14:31N 44°44' E 037°47'0 0.0
2014-Aug-17 13:31N 44°44' E 037°47'0 0.0
2014-Aug-17 12:31N 44°44' E 037°47'0 0.0
2014-Aug-17 11:31N 44°44' E 037°47'0 0.0
2014-Aug-17 10:28N 44°44' E 037°47'0 0.0
2014-Aug-17 09:31N 44°44' E 037°47'0 0.0
2014-Aug-17 08:28N 44°44' E 037°47'0 0.0
2014-Aug-17 07:31N 44°44' E 037°47'0 0.0
2014-Aug-17 06:31N 44°44' E 037°47'0 0.0
2014-Aug-17 01:10N 44°44' E 037°47'0 0.0
2014-Aug-17 00:31N 44°44' E 037°47'0 0.0
2014-Aug-16 23:31N 44°44' E 037°47'0 0.0
2014-Aug-16 22:28N 44°44' E 037°47'0 0.0
2014-Aug-16 21:28N 44°44' E 037°47'0 0.0
2014-Aug-16 20:31N 44°44' E 037°47'0 0.0
2014-Aug-16 19:10N 44°44' E 037°47'0 0.0
2014-Aug-16 18:10N 44°44' E 037°47'0 0.0
2014-Aug-16 17:10N 44°44' E 037°47'0 0.0
2014-Aug-16 16:28N 44°44' E 037°47'0 0.0
2014-Aug-16 15:31N 44°44' E 037°47'0 0.0
2014-Aug-16 14:16N 44°44' E 037°47'0 0.0
2014-Aug-16 13:31N 44°44' E 037°47'0 0.0
2014-Aug-16 09:33N 44°44' E 037°47'0 0.0
2014-Aug-16 08:33N 44°44' E 037°47'0 0.0
2014-Aug-16 06:15N 44°44' E 037°47'0 0.0
2014-Aug-16 05:33N 44°44' E 037°47'0 0.0
2014-Aug-16 04:27N 44°44' E 037°47'0 0.0
2014-Aug-16 03:27N 44°44' E 037°47'0 0.0
2014-Aug-16 02:33N 44°44' E 037°47'0 0.0
2014-Aug-16 01:33N 44°44' E 037°47'0 0.0
2014-Aug-16 00:33N 44°44' E 037°47'0 0.0
2014-Aug-15 23:33N 44°44' E 037°47'0 0.0
2014-Aug-15 22:30N 44°44' E 037°47'0 0.0
2014-Aug-15 21:33N 44°44' E 037°47'0 0.0
2014-Aug-15 20:33N 44°44' E 037°47'0 0.0
2014-Aug-15 19:30N 44°44' E 037°47'0 0.0
2014-Aug-15 18:33N 44°44' E 037°47'0 0.0
2014-Aug-15 17:30N 44°44' E 037°47'0 0.0
2014-Aug-15 16:33N 44°44' E 037°47'0 0.0
2014-Aug-15 13:34N 44°44' E 037°47'4 3.6
2014-Aug-15 12:33N 44°41' E 037°50'8 7.7
2014-Aug-15 11:33N 44°33' E 037°51'1 1.1
2014-Aug-15 10:34N 44°32' E 037°50'8 7.6
2014-Aug-15 09:34N 44°30' E 037°40'1 1.1
2014-Aug-15 08:34N 44°29' E 037°41'5 5.1
2014-Aug-15 07:33N 44°33' E 037°36'4 4.2
2014-Aug-15 06:33N 44°35' E 037°31'9 0.6
2014-Aug-14 15:24N 44°27' E 037°38'1112.9
2014-Aug-14 14:33N 44°22' E 037°24'1312.8
2014-Aug-14 13:33N 44°17' E 037°08'1313.1
2014-Aug-14 12:33N 44°10' E 036°52'1312.8
2014-Aug-14 11:33N 44°08' E 036°34'1312.7
2014-Aug-14 10:31N 44°09' E 036°16'1312.5
2014-Aug-14 09:31N 44°08' E 035°59'1212.7
2014-Aug-14 08:33N 44°08' E 035°42'1312.8
2014-Aug-14 07:33N 44°08' E 035°24'1412.7
2014-Aug-14 06:28N 44°08' E 035°05'1212.6
2014-Aug-14 05:33N 44°08' E 034°49'16712.8
2014-Aug-13 16:31N 44°08' E 030°55'1313.1
2014-Aug-13 15:33N 44°07' E 030°38'1313.0
2014-Aug-13 14:32N 44°08' E 030°19'1313.0
2014-Aug-13 13:33N 44°08' E 030°02'1413.1
2014-Aug-13 12:27N 44°07' E 029°42'2713.7
2014-Aug-13 10:27N 44°08' E 029°03'2 0.9
2014-Aug-13 08:33N 44°08' E 029°01'0 0.0
2014-Aug-13 05:15N 44°08' E 029°01'0 0.0
2014-Aug-13 04:30N 44°08' E 029°01'0 0.0
2014-Aug-13 03:33N 44°08' E 029°01'  
Track history (hours):
 
Tides and Currents Weather Stations Pressure Air Temp Water Temp Dewpoint Dewpoint Depression Visibility Wind Speed Wind Dir Waves Ship Positions

Valle Di Nervion

Last reported at 2014-Aug-23 02:33 UTC. Time now 2014-Aug-23 03:34 UTC.
Position N 37°14' E 026°18'.

Length 176 m; draft 9.5 m.

Type: Ship (hazmat cat D). MMSI: 247109500.

Date/timePositionNaut miles runAvg speedWind from/ knotsBaromVisibWave heightAir tempDewpointWater temp
2014-Aug-23 02:33N 37°14' E 026°18'1312.6
2014-Aug-23 01:33N 37°22' E 026°06'1212.5
2014-Aug-23 00:33N 37°30' E 025°53'1412.9
2014-Aug-22 23:29N 37°43' E 025°51'1812.5
2014-Aug-22 22:04N 38°01' E 025°48'612.5
2014-Aug-22 21:33N 38°07' E 025°46'1312.7
2014-Aug-22 20:33N 38°20' E 025°44'2512.5
2014-Aug-22 18:33N 38°45' E 025°43'1312.8
2014-Aug-22 17:32N 38°58' E 025°44'4112.6
2014-Aug-22 14:14N 39°39' E 025°44'2312.5
2014-Aug-22 12:24N 39°60' E 025°57'4812.4
2014-Aug-22 08:33N 40°27' E 026°48'22 3.4
2014-Aug-22 02:14N 40°37' E 027°14'4012.6
2014-Aug-21 23:06N 40°49' E 028°03'812.4
2014-Aug-21 22:26N 40°50' E 028°14'1412.5
2014-Aug-21 21:20N 40°51' E 028°32'1012.6
2014-Aug-21 20:32N 40°53' E 028°45'1010.6
2014-Aug-21 19:33N 40°58' E 028°58'  
2014-Aug-18 12:33N 44°43' E 037°47'0 0.2
2014-Aug-18 11:32N 44°44' E 037°47'0 0.0
2014-Aug-18 10:32N 44°44' E 037°47'0 0.0
2014-Aug-18 09:29N 44°44' E 037°47'0 0.0
2014-Aug-18 08:29N 44°44' E 037°47'0 0.0
2014-Aug-18 07:32N 44°44' E 037°47'0 0.0
2014-Aug-18 06:32N 44°44' E 037°47'0 0.0
2014-Aug-18 05:32N 44°44' E 037°47'0 0.0
2014-Aug-18 04:32N 44°44' E 037°47'0 0.0
2014-Aug-18 03:32N 44°44' E 037°47'0 0.0
2014-Aug-18 02:32N 44°44' E 037°47'0 0.0
2014-Aug-18 01:32N 44°44' E 037°47'0 0.0
2014-Aug-18 00:32N 44°44' E 037°47'0 0.0
2014-Aug-17 18:31N 44°44' E 037°47'0 0.0
2014-Aug-17 17:31N 44°44' E 037°47'0 0.0
2014-Aug-17 16:31N 44°44' E 037°47'0 0.0
2014-Aug-17 15:31N 44°44' E 037°47'0 0.0
2014-Aug-17 14:31N 44°44' E 037°47'0 0.0
2014-Aug-17 13:31N 44°44' E 037°47'0 0.0
2014-Aug-17 12:31N 44°44' E 037°47'0 0.0
2014-Aug-17 11:31N 44°44' E 037°47'0 0.0
2014-Aug-17 10:28N 44°44' E 037°47'0 0.0
2014-Aug-17 09:31N 44°44' E 037°47'0 0.0
2014-Aug-17 08:28N 44°44' E 037°47'0 0.0
2014-Aug-17 07:31N 44°44' E 037°47'0 0.0
2014-Aug-17 06:31N 44°44' E 037°47'0 0.0
2014-Aug-17 01:10N 44°44' E 037°47'0 0.0
2014-Aug-17 00:31N 44°44' E 037°47'0 0.0
2014-Aug-16 23:31N 44°44' E 037°47'0 0.0
2014-Aug-16 22:28N 44°44' E 037°47'0 0.0
2014-Aug-16 21:28N 44°44' E 037°47'0 0.0
2014-Aug-16 20:31N 44°44' E 037°47'0 0.0
2014-Aug-16 19:10N 44°44' E 037°47'0 0.0
2014-Aug-16 18:10N 44°44' E 037°47'0 0.0
2014-Aug-16 17:10N 44°44' E 037°47'0 0.0
2014-Aug-16 16:28N 44°44' E 037°47'0 0.0
2014-Aug-16 15:31N 44°44' E 037°47'0 0.0
2014-Aug-16 14:16N 44°44' E 037°47'0 0.0
2014-Aug-16 13:31N 44°44' E 037°47'0 0.0
2014-Aug-16 09:33N 44°44' E 037°47'0 0.0
2014-Aug-16 08:33N 44°44' E 037°47'0 0.0
2014-Aug-16 06:15N 44°44' E 037°47'0 0.0
2014-Aug-16 05:33N 44°44' E 037°47'0 0.0
2014-Aug-16 04:27N 44°44' E 037°47'0 0.0
2014-Aug-16 03:27N 44°44' E 037°47'0 0.0
2014-Aug-16 02:33N 44°44' E 037°47'0 0.0
2014-Aug-16 01:33N 44°44' E 037°47'0 0.0
2014-Aug-16 00:33N 44°44' E 037°47'0 0.0
2014-Aug-15 23:33N 44°44' E 037°47'0 0.0
2014-Aug-15 22:30N 44°44' E 037°47'0 0.0
2014-Aug-15 21:33N 44°44' E 037°47'0 0.0
2014-Aug-15 20:33N 44°44' E 037°47'0 0.0
2014-Aug-15 19:30N 44°44' E 037°47'0 0.0
2014-Aug-15 18:33N 44°44' E 037°47'0 0.0
2014-Aug-15 17:30N 44°44' E 037°47'0 0.0
2014-Aug-15 16:33N 44°44' E 037°47'0 0.0
2014-Aug-15 13:34N 44°44' E 037°47'4 3.6
2014-Aug-15 12:33N 44°41' E 037°50'8 7.7
2014-Aug-15 11:33N 44°33' E 037°51'1 1.1
2014-Aug-15 10:34N 44°32' E 037°50'8 7.6
2014-Aug-15 09:34N 44°30' E 037°40'1 1.1
2014-Aug-15 08:34N 44°29' E 037°41'5 5.1
2014-Aug-15 07:33N 44°33' E 037°36'4 4.2
2014-Aug-15 06:33N 44°35' E 037°31'9 0.6
2014-Aug-14 15:24N 44°27' E 037°38'1112.9
2014-Aug-14 14:33N 44°22' E 037°24'1312.8
2014-Aug-14 13:33N 44°17' E 037°08'1313.1
2014-Aug-14 12:33N 44°10' E 036°52'1312.8
2014-Aug-14 11:33N 44°08' E 036°34'1312.7
2014-Aug-14 10:31N 44°09' E 036°16'1312.5
2014-Aug-14 09:31N 44°08' E 035°59'1212.7
2014-Aug-14 08:33N 44°08' E 035°42'1312.8
2014-Aug-14 07:33N 44°08' E 035°24'1412.7
2014-Aug-14 06:28N 44°08' E 035°05'1212.6
2014-Aug-14 05:33N 44°08' E 034°49'16712.8
2014-Aug-13 16:31N 44°08' E 030°55'1313.1
2014-Aug-13 15:33N 44°07' E 030°38'1313.0
2014-Aug-13 14:32N 44°08' E 030°19'1313.0
2014-Aug-13 13:33N 44°08' E 030°02'1413.1
2014-Aug-13 12:27N 44°07' E 029°42'2713.7
2014-Aug-13 10:27N 44°08' E 029°03'2 0.9
2014-Aug-13 08:33N 44°08' E 029°01'0 0.0
2014-Aug-13 05:15N 44°08' E 029°01'0 0.0
2014-Aug-13 04:30N 44°08' E 029°01'0 0.0
2014-Aug-13 03:33N 44°08' E 029°01'  

Dump ship's entire track history